sensor_id;sensor_type;location;lat;lon;timestamp;temperature;humidity
11989;DHT22;6054;50.966;7.094;2024-01-15T00:00:58;8.40;60.70
11989;DHT22;6054;50.966;7.094;2024-01-15T00:03:26;8.40;60.30
11989;DHT22;6054;50.966;7.094;2024-01-15T00:05:53;8.40;60.70
11989;DHT22;6054;50.966;7.094;2024-01-15T00:08:20;8.40;60.30
11989;DHT22;6054;50.966;7.094;2024-01-15T00:10:47;8.60;59.20
11989;DHT22;6054;50.966;7.094;2024-01-15T00:13:13;8.40;59.60
11989;DHT22;6054;50.966;7.094;2024-01-15T00:15:40;8.40;59.70
11989;DHT22;6054;50.966;7.094;2024-01-15T00:18:07;8.40;60.20
11989;DHT22;6054;50.966;7.094;2024-01-15T00:20:35;8.30;59.50
11989;DHT22;6054;50.966;7.094;2024-01-15T00:23:02;8.30;59.10
11989;DHT22;6054;50.966;7.094;2024-01-15T00:25:29;8.30;60.30
11989;DHT22;6054;50.966;7.094;2024-01-15T00:27:55;8.30;60.20
11989;DHT22;6054;50.966;7.094;2024-01-15T00:30:22;8.30;60.20
11989;DHT22;6054;50.966;7.094;2024-01-15T00:32:49;8.30;59.80
11989;DHT22;6054;50.966;7.094;2024-01-15T00:35:16;8.30;59.90
11989;DHT22;6054;50.966;7.094;2024-01-15T00:37:44;8.30;60.10
11989;DHT22;6054;50.966;7.094;2024-01-15T00:40:10;8.60;60.30
11989;DHT22;6054;50.966;7.094;2024-01-15T00:42:37;8.20;59.80
11989;DHT22;6054;50.966;7.094;2024-01-15T00:45:04;8.40;59.30
11989;DHT22;6054;50.966;7.094;2024-01-15T00:47:33;8.20;59.70
11989;DHT22;6054;50.966;7.094;2024-01-15T00:50:00;8.20;59.70
11989;DHT22;6054;50.966;7.094;2024-01-15T00:52:26;8.20;59.80
11989;DHT22;6054;50.966;7.094;2024-01-15T00:54:55;8.20;59.60
11989;DHT22;6054;50.966;7.094;2024-01-15T00:57:21;8.20;59.50
11989;DHT22;6054;50.966;7.094;2024-01-15T00:59:48;8.20;59.90
11989;DHT22;6054;50.966;7.094;2024-01-15T01:02:15;8.20;59.90
11989;DHT22;6054;50.966;7.094;2024-01-15T01:04:42;8.10;60.10
11989;DHT22;6054;50.966;7.094;2024-01-15T01:07:08;8.10;59.80
11989;DHT22;6054;50.966;7.094;2024-01-15T01:09:35;8.10;59.50
11989;DHT22;6054;50.966;7.094;2024-01-15T01:12:04;8.10;59.80
11989;DHT22;6054;50.966;7.094;2024-01-15T01:14:31;8.10;60.40
11989;DHT22;6054;50.966;7.094;2024-01-15T01:16:58;8.10;61.20
11989;DHT22;6054;50.966;7.094;2024-01-15T01:19:25;8.20;59.90
11989;DHT22;6054;50.966;7.094;2024-01-15T01:21:51;8.20;60.50
11989;DHT22;6054;50.966;7.094;2024-01-15T01:24:18;8.20;60.60
11989;DHT22;6054;50.966;7.094;2024-01-15T01:26:45;8.10;59.80
11989;DHT22;6054;50.966;7.094;2024-01-15T01:29:13;8.20;60.40
11989;DHT22;6054;50.966;7.094;2024-01-15T01:31:43;8.30;60.20
11989;DHT22;6054;50.966;7.094;2024-01-15T01:34:10;8.20;60.90
11989;DHT22;6054;50.966;7.094;2024-01-15T01:36:36;8.30;60.20
11989;DHT22;6054;50.966;7.094;2024-01-15T01:39:03;8.30;60.40
11989;DHT22;6054;50.966;7.094;2024-01-15T01:41:30;8.30;60.70
11989;DHT22;6054;50.966;7.094;2024-01-15T01:43:57;8.40;60.40
11989;DHT22;6054;50.966;7.094;2024-01-15T01:46:26;8.30;60.70
11989;DHT22;6054;50.966;7.094;2024-01-15T01:48:53;8.60;61.90
11989;DHT22;6054;50.966;7.094;2024-01-15T01:51:22;8.30;61.30
11989;DHT22;6054;50.966;7.094;2024-01-15T01:53:50;8.60;61.70
11989;DHT22;6054;50.966;7.094;2024-01-15T01:56:17;8.30;60.90
11989;DHT22;6054;50.966;7.094;2024-01-15T01:58:44;8.30;61.40
11989;DHT22;6054;50.966;7.094;2024-01-15T02:01:12;8.30;61.10
11989;DHT22;6054;50.966;7.094;2024-01-15T02:03:40;8.30;61.30
11989;DHT22;6054;50.966;7.094;2024-01-15T02:06:08;8.60;60.90
11989;DHT22;6054;50.966;7.094;2024-01-15T02:08:35;8.30;60.80
11989;DHT22;6054;50.966;7.094;2024-01-15T02:11:02;8.30;61.20
11989;DHT22;6054;50.966;7.094;2024-01-15T02:13:29;8.30;60.40
11989;DHT22;6054;50.966;7.094;2024-01-15T02:15:56;8.30;60.80
11989;DHT22;6054;50.966;7.094;2024-01-15T02:18:23;8.30;59.30
11989;DHT22;6054;50.966;7.094;2024-01-15T02:20:51;8.40;61.60
11989;DHT22;6054;50.966;7.094;2024-01-15T02:23:19;8.60;60.80
11989;DHT22;6054;50.966;7.094;2024-01-15T02:25:46;8.30;60.40
11989;DHT22;6054;50.966;7.094;2024-01-15T02:28:15;8.60;61.60
11989;DHT22;6054;50.966;7.094;2024-01-15T02:30:43;8.40;61.70
11989;DHT22;6054;50.966;7.094;2024-01-15T02:33:11;8.40;61.40
11989;DHT22;6054;50.966;7.094;2024-01-15T02:35:38;8.70;61.00
11989;DHT22;6054;50.966;7.094;2024-01-15T02:38:05;8.40;60.80
11989;DHT22;6054;50.966;7.094;2024-01-15T02:40:33;8.70;61.00
11989;DHT22;6054;50.966;7.094;2024-01-15T02:43:00;8.40;61.30
11989;DHT22;6054;50.966;7.094;2024-01-15T02:45:27;8.40;60.60
11989;DHT22;6054;50.966;7.094;2024-01-15T02:47:54;8.40;61.00
11989;DHT22;6054;50.966;7.094;2024-01-15T02:50:21;8.30;60.40
11989;DHT22;6054;50.966;7.094;2024-01-15T02:52:48;8.60;59.90
11989;DHT22;6054;50.966;7.094;2024-01-15T02:55:14;8.60;60.50
11989;DHT22;6054;50.966;7.094;2024-01-15T02:57:43;8.40;60.90
11989;DHT22;6054;50.966;7.094;2024-01-15T03:00:10;8.40;60.90
11989;DHT22;6054;50.966;7.094;2024-01-15T03:02:39;8.40;61.60
11989;DHT22;6054;50.966;7.094;2024-01-15T03:05:06;8.40;61.30
11989;DHT22;6054;50.966;7.094;2024-01-15T03:07:33;8.40;61.10
11989;DHT22;6054;50.966;7.094;2024-01-15T03:10:00;8.40;60.80
11989;DHT22;6054;50.966;7.094;2024-01-15T03:12:27;8.40;60.40
11989;DHT22;6054;50.966;7.094;2024-01-15T03:14:55;8.40;60.50
11989;DHT22;6054;50.966;7.094;2024-01-15T03:17:21;8.40;60.90
11989;DHT22;6054;50.966;7.094;2024-01-15T03:19:48;8.40;60.90
11989;DHT22;6054;50.966;7.094;2024-01-15T03:22:16;8.40;61.30
11989;DHT22;6054;50.966;7.094;2024-01-15T03:24:43;8.40;61.20
11989;DHT22;6054;50.966;7.094;2024-01-15T03:27:10;8.40;61.40
11989;DHT22;6054;50.966;7.094;2024-01-15T03:29:36;8.40;61.40
11989;DHT22;6054;50.966;7.094;2024-01-15T03:32:05;8.40;60.90
11989;DHT22;6054;50.966;7.094;2024-01-15T03:34:32;8.40;61.20
11989;DHT22;6054;50.966;7.094;2024-01-15T03:36:59;8.40;61.30
11989;DHT22;6054;50.966;7.094;2024-01-15T03:39:25;8.40;60.60
11989;DHT22;6054;50.966;7.094;2024-01-15T03:41:52;8.50;60.60
11989;DHT22;6054;50.966;7.094;2024-01-15T03:44:19;8.40;61.00
11989;DHT22;6054;50.966;7.094;2024-01-15T03:46:46;8.50;60.80
11989;DHT22;6054;50.966;7.094;2024-01-15T03:49:14;8.70;60.30
11989;DHT22;6054;50.966;7.094;2024-01-15T03:51:40;8.70;59.90
11989;DHT22;6054;50.966;7.094;2024-01-15T03:54:07;8.40;60.70
11989;DHT22;6054;50.966;7.094;2024-01-15T03:56:34;8.40;61.20
11989;DHT22;6054;50.966;7.094;2024-01-15T03:59:01;8.40;60.30
11989;DHT22;6054;50.966;7.094;2024-01-15T04:01:27;8.50;61.20
11989;DHT22;6054;50.966;7.094;2024-01-15T04:03:55;8.80;61.50
11989;DHT22;6054;50.966;7.094;2024-01-15T04:06:23;8.50;61.00
11989;DHT22;6054;50.966;7.094;2024-01-15T04:08:50;8.50;60.70
11989;DHT22;6054;50.966;7.094;2024-01-15T04:11:16;8.50;60.00
11989;DHT22;6054;50.966;7.094;2024-01-15T04:13:43;8.50;60.80
11989;DHT22;6054;50.966;7.094;2024-01-15T04:16:10;8.80;60.70
11989;DHT22;6054;50.966;7.094;2024-01-15T04:18:37;8.50;61.20
11989;DHT22;6054;50.966;7.094;2024-01-15T04:21:04;8.70;60.70
11989;DHT22;6054;50.966;7.094;2024-01-15T04:23:33;8.60;61.60
11989;DHT22;6054;50.966;7.094;2024-01-15T04:26:00;8.60;61.30
11989;DHT22;6054;50.966;7.094;2024-01-15T04:28:26;8.60;60.90
11989;DHT22;6054;50.966;7.094;2024-01-15T04:30:53;8.60;60.70
11989;DHT22;6054;50.966;7.094;2024-01-15T04:33:20;8.60;61.20
11989;DHT22;6054;50.966;7.094;2024-01-15T04:35:47;8.60;60.20
11989;DHT22;6054;50.966;7.094;2024-01-15T04:38:13;8.60;61.50
11989;DHT22;6054;50.966;7.094;2024-01-15T04:40:42;8.60;61.10
11989;DHT22;6054;50.966;7.094;2024-01-15T04:43:08;8.60;61.00
11989;DHT22;6054;50.966;7.094;2024-01-15T04:45:35;8.60;60.30
11989;DHT22;6054;50.966;7.094;2024-01-15T04:48:02;8.60;60.50
11989;DHT22;6054;50.966;7.094;2024-01-15T04:50:29;8.60;61.30
11989;DHT22;6054;50.966;7.094;2024-01-15T04:52:56;8.70;60.50
11989;DHT22;6054;50.966;7.094;2024-01-15T04:55:22;8.70;61.10
11989;DHT22;6054;50.966;7.094;2024-01-15T04:57:51;8.60;60.00
11989;DHT22;6054;50.966;7.094;2024-01-15T05:00:18;8.90;60.60
11989;DHT22;6054;50.966;7.094;2024-01-15T05:02:45;8.70;60.80
11989;DHT22;6054;50.966;7.094;2024-01-15T05:05:12;8.70;61.70
11989;DHT22;6054;50.966;7.094;2024-01-15T05:07:39;8.80;61.40
11989;DHT22;6054;50.966;7.094;2024-01-15T05:10:06;8.80;61.80
11989;DHT22;6054;50.966;7.094;2024-01-15T05:12:33;8.80;62.40
11989;DHT22;6054;50.966;7.094;2024-01-15T05:15:02;8.70;61.10
11989;DHT22;6054;50.966;7.094;2024-01-15T05:17:29;8.80;61.80
11989;DHT22;6054;50.966;7.094;2024-01-15T05:19:56;8.80;61.90
11989;DHT22;6054;50.966;7.094;2024-01-15T05:22:23;8.80;61.40
11989;DHT22;6054;50.966;7.094;2024-01-15T05:24:50;8.80;60.90
11989;DHT22;6054;50.966;7.094;2024-01-15T05:27:17;8.80;61.40
11989;DHT22;6054;50.966;7.094;2024-01-15T05:29:43;8.80;61.70
11989;DHT22;6054;50.966;7.094;2024-01-15T05:32:12;8.80;61.20
11989;DHT22;6054;50.966;7.094;2024-01-15T05:34:38;9.10;61.50
11989;DHT22;6054;50.966;7.094;2024-01-15T05:37:05;8.80;61.70
11989;DHT22;6054;50.966;7.094;2024-01-15T05:39:32;8.80;61.60
11989;DHT22;6054;50.966;7.094;2024-01-15T05:41:59;8.80;60.70
11989;DHT22;6054;50.966;7.094;2024-01-15T05:44:26;8.80;61.40
11989;DHT22;6054;50.966;7.094;2024-01-15T05:46:53;8.80;61.20
11989;DHT22;6054;50.966;7.094;2024-01-15T05:49:21;8.80;61.10
11989;DHT22;6054;50.966;7.094;2024-01-15T05:51:48;8.80;61.00
11989;DHT22;6054;50.966;7.094;2024-01-15T05:54:16;8.80;61.20
11989;DHT22;6054;50.966;7.094;2024-01-15T05:56:42;8.80;61.40
11989;DHT22;6054;50.966;7.094;2024-01-15T05:59:09;8.80;60.60
11989;DHT22;6054;50.966;7.094;2024-01-15T06:01:36;8.80;60.50
11989;DHT22;6054;50.966;7.094;2024-01-15T06:04:03;8.80;60.00
11989;DHT22;6054;50.966;7.094;2024-01-15T06:06:31;8.80;60.70
11989;DHT22;6054;50.966;7.094;2024-01-15T06:08:58;8.80;59.60
11989;DHT22;6054;50.966;7.094;2024-01-15T06:11:30;9.10;60.00
11989;DHT22;6054;50.966;7.094;2024-01-15T06:13:57;8.80;60.80
11989;DHT22;6054;50.966;7.094;2024-01-15T06:16:24;8.80;61.00
11989;DHT22;6054;50.966;7.094;2024-01-15T06:18:51;8.70;60.40
11989;DHT22;6054;50.966;7.094;2024-01-15T06:21:18;8.80;59.90
11989;DHT22;6054;50.966;7.094;2024-01-15T06:23:46;8.80;60.60
11989;DHT22;6054;50.966;7.094;2024-01-15T06:26:13;9.00;60.50
11989;DHT22;6054;50.966;7.094;2024-01-15T06:28:40;8.80;61.60
11989;DHT22;6054;50.966;7.094;2024-01-15T06:31:07;8.90;60.30
11989;DHT22;6054;50.966;7.094;2024-01-15T06:33:33;8.80;60.90
11989;DHT22;6054;50.966;7.094;2024-01-15T06:36:00;8.70;60.90
11989;DHT22;6054;50.966;7.094;2024-01-15T06:38:27;8.80;60.90
11989;DHT22;6054;50.966;7.094;2024-01-15T06:40:55;8.80;61.40
11989;DHT22;6054;50.966;7.094;2024-01-15T06:43:22;8.80;61.80
11989;DHT22;6054;50.966;7.094;2024-01-15T06:45:49;8.80;61.00
11989;DHT22;6054;50.966;7.094;2024-01-15T06:48:15;8.80;61.50
11989;DHT22;6054;50.966;7.094;2024-01-15T06:50:42;8.80;61.60
11989;DHT22;6054;50.966;7.094;2024-01-15T06:53:09;8.80;61.40
11989;DHT22;6054;50.966;7.094;2024-01-15T06:55:36;8.80;61.70
11989;DHT22;6054;50.966;7.094;2024-01-15T06:58:04;8.80;61.30
11989;DHT22;6054;50.966;7.094;2024-01-15T07:00:31;8.80;61.00
11989;DHT22;6054;50.966;7.094;2024-01-15T07:02:57;8.80;60.90
11989;DHT22;6054;50.966;7.094;2024-01-15T07:05:24;8.80;61.30
11989;DHT22;6054;50.966;7.094;2024-01-15T07:07:51;8.80;61.20
11989;DHT22;6054;50.966;7.094;2024-01-15T07:10:18;8.80;61.80
11989;DHT22;6054;50.966;7.094;2024-01-15T07:12:45;8.80;61.60
11989;DHT22;6054;50.966;7.094;2024-01-15T07:15:13;8.80;61.00
11989;DHT22;6054;50.966;7.094;2024-01-15T07:17:41;8.80;61.40
11989;DHT22;6054;50.966;7.094;2024-01-15T07:20:09;9.00;61.00
11989;DHT22;6054;50.966;7.094;2024-01-15T07:22:36;8.80;61.70
11989;DHT22;6054;50.966;7.094;2024-01-15T07:25:03;8.80;61.40
11989;DHT22;6054;50.966;7.094;2024-01-15T07:27:32;8.80;61.70
11989;DHT22;6054;50.966;7.094;2024-01-15T07:29:59;8.70;61.30
11989;DHT22;6054;50.966;7.094;2024-01-15T07:32:27;9.10;60.80
11989;DHT22;6054;50.966;7.094;2024-01-15T07:34:53;8.80;60.90
11989;DHT22;6054;50.966;7.094;2024-01-15T07:37:20;8.80;61.00
11989;DHT22;6054;50.966;7.094;2024-01-15T07:39:48;8.70;61.10
11989;DHT22;6054;50.966;7.094;2024-01-15T07:42:15;8.70;61.10
11989;DHT22;6054;50.966;7.094;2024-01-15T07:44:42;8.80;61.00
11989;DHT22;6054;50.966;7.094;2024-01-15T07:47:09;8.70;60.40
11989;DHT22;6054;50.966;7.094;2024-01-15T07:49:37;9.00;61.20
11989;DHT22;6054;50.966;7.094;2024-01-15T07:52:05;8.70;59.90
11989;DHT22;6054;50.966;7.094;2024-01-15T07:54:32;9.00;60.90
11989;DHT22;6054;50.966;7.094;2024-01-15T07:57:00;8.90;61.30
11989;DHT22;6054;50.966;7.094;2024-01-15T07:59:28;8.70;61.80
11989;DHT22;6054;50.966;7.094;2024-01-15T08:01:55;8.90;60.80
11989;DHT22;6054;50.966;7.094;2024-01-15T08:04:22;8.70;61.20
11989;DHT22;6054;50.966;7.094;2024-01-15T08:06:50;8.80;60.80
11989;DHT22;6054;50.966;7.094;2024-01-15T08:09:17;8.80;61.40
11989;DHT22;6054;50.966;7.094;2024-01-15T08:11:44;8.80;61.00
11989;DHT22;6054;50.966;7.094;2024-01-15T08:14:11;8.80;61.10
11989;DHT22;6054;50.966;7.094;2024-01-15T08:16:39;9.00;62.50
11989;DHT22;6054;50.966;7.094;2024-01-15T08:19:06;8.80;61.40
11989;DHT22;6054;50.966;7.094;2024-01-15T08:21:32;8.80;61.50
11989;DHT22;6054;50.966;7.094;2024-01-15T08:24:02;8.80;61.10
11989;DHT22;6054;50.966;7.094;2024-01-15T08:26:29;8.80;62.10
11989;DHT22;6054;50.966;7.094;2024-01-15T08:28:56;8.90;60.10
11989;DHT22;6054;50.966;7.094;2024-01-15T08:31:23;8.90;60.60
11989;DHT22;6054;50.966;7.094;2024-01-15T08:33:49;8.80;61.20
11989;DHT22;6054;50.966;7.094;2024-01-15T08:36:16;8.80;60.80
11989;DHT22;6054;50.966;7.094;2024-01-15T08:38:43;9.10;60.50
11989;DHT22;6054;50.966;7.094;2024-01-15T08:41:11;9.00;59.90
11989;DHT22;6054;50.966;7.094;2024-01-15T08:43:38;8.80;60.60
11989;DHT22;6054;50.966;7.094;2024-01-15T08:46:05;8.80;60.70
11989;DHT22;6054;50.966;7.094;2024-01-15T08:48:32;8.80;60.90
11989;DHT22;6054;50.966;7.094;2024-01-15T08:50:59;8.80;60.50
11989;DHT22;6054;50.966;7.094;2024-01-15T08:53:26;8.80;60.40
11989;DHT22;6054;50.966;7.094;2024-01-15T08:55:53;8.80;61.10
11989;DHT22;6054;50.966;7.094;2024-01-15T08:58:22;8.80;61.10
11989;DHT22;6054;50.966;7.094;2024-01-15T09:00:49;8.80;61.90
11989;DHT22;6054;50.966;7.094;2024-01-15T09:03:16;8.80;61.80
11989;DHT22;6054;50.966;7.094;2024-01-15T09:05:43;8.80;60.90
11989;DHT22;6054;50.966;7.094;2024-01-15T09:08:10;9.10;61.50
11989;DHT22;6054;50.966;7.094;2024-01-15T09:10:37;8.80;61.10
11989;DHT22;6054;50.966;7.094;2024-01-15T09:13:04;8.80;60.90
11989;DHT22;6054;50.966;7.094;2024-01-15T09:15:32;8.80;61.00
11989;DHT22;6054;50.966;7.094;2024-01-15T09:17:59;9.00;60.40
11989;DHT22;6054;50.966;7.094;2024-01-15T09:20:27;9.20;59.80
11989;DHT22;6054;50.966;7.094;2024-01-15T09:22:54;8.80;60.30
11989;DHT22;6054;50.966;7.094;2024-01-15T09:25:21;8.80;60.50
11989;DHT22;6054;50.966;7.094;2024-01-15T09:27:48;8.80;59.80
11989;DHT22;6054;50.966;7.094;2024-01-15T09:30:15;9.10;60.00
11989;DHT22;6054;50.966;7.094;2024-01-15T09:32:43;8.80;60.90
11989;DHT22;6054;50.966;7.094;2024-01-15T09:35:12;8.80;60.20
11989;DHT22;6054;50.966;7.094;2024-01-15T09:37:39;8.80;60.30
11989;DHT22;6054;50.966;7.094;2024-01-15T09:40:08;8.70;60.40
11989;DHT22;6054;50.966;7.094;2024-01-15T09:42:38;8.80;61.80
11989;DHT22;6054;50.966;7.094;2024-01-15T09:45:12;8.70;61.20
11989;DHT22;6054;50.966;7.094;2024-01-15T09:47:39;8.70;60.50
11989;DHT22;6054;50.966;7.094;2024-01-15T09:50:09;8.70;61.20
11989;DHT22;6054;50.966;7.094;2024-01-15T09:52:36;8.70;60.60
11989;DHT22;6054;50.966;7.094;2024-01-15T09:55:03;8.70;60.90
11989;DHT22;6054;50.966;7.094;2024-01-15T09:57:31;8.70;60.40
11989;DHT22;6054;50.966;7.094;2024-01-15T10:00:00;8.60;60.90
11989;DHT22;6054;50.966;7.094;2024-01-15T10:02:30;8.60;61.60
11989;DHT22;6054;50.966;7.094;2024-01-15T10:04:57;8.60;60.10
11989;DHT22;6054;50.966;7.094;2024-01-15T10:07:25;8.60;59.60
11989;DHT22;6054;50.966;7.094;2024-01-15T10:09:53;8.60;60.30
11989;DHT22;6054;50.966;7.094;2024-01-15T10:12:21;8.60;59.80
11989;DHT22;6054;50.966;7.094;2024-01-15T10:14:48;8.90;61.40
11989;DHT22;6054;50.966;7.094;2024-01-15T10:17:15;8.50;60.30
11989;DHT22;6054;50.966;7.094;2024-01-15T10:19:43;8.50;60.80
11989;DHT22;6054;50.966;7.094;2024-01-15T10:22:10;8.40;60.50
11989;DHT22;6054;50.966;7.094;2024-01-15T10:24:40;8.50;59.80
11989;DHT22;6054;50.966;7.094;2024-01-15T10:27:08;8.40;60.20
11989;DHT22;6054;50.966;7.094;2024-01-15T10:29:36;8.50;61.00
11989;DHT22;6054;50.966;7.094;2024-01-15T10:32:06;8.40;58.70
11989;DHT22;6054;50.966;7.094;2024-01-15T10:34:34;8.70;60.20
11989;DHT22;6054;50.966;7.094;2024-01-15T10:37:04;8.70;60.30
11989;DHT22;6054;50.966;7.094;2024-01-15T10:39:32;8.80;59.80
11989;DHT22;6054;50.966;7.094;2024-01-15T10:42:00;8.70;58.20
11989;DHT22;6054;50.966;7.094;2024-01-15T10:44:27;8.40;58.90
11989;DHT22;6054;50.966;7.094;2024-01-15T10:46:55;8.40;60.00
11989;DHT22;6054;50.966;7.094;2024-01-15T10:49:23;8.40;61.10
11989;DHT22;6054;50.966;7.094;2024-01-15T10:51:53;8.40;60.70
11989;DHT22;6054;50.966;7.094;2024-01-15T10:54:21;8.40;60.20
11989;DHT22;6054;50.966;7.094;2024-01-15T10:56:49;8.50;61.30
11989;DHT22;6054;50.966;7.094;2024-01-15T10:59:19;8.50;62.00
11989;DHT22;6054;50.966;7.094;2024-01-15T11:01:47;8.50;62.20
11989;DHT22;6054;50.966;7.094;2024-01-15T11:04:14;8.50;61.50
11989;DHT22;6054;50.966;7.094;2024-01-15T11:06:44;8.50;61.50
11989;DHT22;6054;50.966;7.094;2024-01-15T11:09:12;8.50;61.60
11989;DHT22;6054;50.966;7.094;2024-01-15T11:11:41;8.50;61.30
11989;DHT22;6054;50.966;7.094;2024-01-15T11:14:08;8.50;61.60
11989;DHT22;6054;50.966;7.094;2024-01-15T11:16:55;8.50;60.40
11989;DHT22;6054;50.966;7.094;2024-01-15T11:19:22;8.50;62.10
11989;DHT22;6054;50.966;7.094;2024-01-15T11:21:49;8.50;60.50
11989;DHT22;6054;50.966;7.094;2024-01-15T11:24:34;8.50;60.30
11989;DHT22;6054;50.966;7.094;2024-01-15T11:27:01;8.80;62.30
11989;DHT22;6054;50.966;7.094;2024-01-15T11:29:32;8.50;59.70
11989;DHT22;6054;50.966;7.094;2024-01-15T11:32:04;8.50;61.80
11989;DHT22;6054;50.966;7.094;2024-01-15T11:34:57;8.50;62.10
11989;DHT22;6054;50.966;7.094;2024-01-15T11:37:26;8.60;62.60
11989;DHT22;6054;50.966;7.094;2024-01-15T11:39:54;8.60;62.50
11989;DHT22;6054;50.966;7.094;2024-01-15T11:42:21;8.50;62.10
11989;DHT22;6054;50.966;7.094;2024-01-15T11:44:49;8.80;62.90
11989;DHT22;6054;50.966;7.094;2024-01-15T11:47:40;8.60;61.40
11989;DHT22;6054;50.966;7.094;2024-01-15T11:50:11;8.70;62.50
11989;DHT22;6054;50.966;7.094;2024-01-15T11:52:39;8.60;60.00
11989;DHT22;6054;50.966;7.094;2024-01-15T11:55:12;8.80;59.50
11989;DHT22;6054;50.966;7.094;2024-01-15T11:57:43;8.60;61.90
11989;DHT22;6054;50.966;7.094;2024-01-15T12:00:12;8.60;61.70
11989;DHT22;6054;50.966;7.094;2024-01-15T12:02:41;8.60;61.10
11989;DHT22;6054;50.966;7.094;2024-01-15T12:05:09;8.60;62.10
11989;DHT22;6054;50.966;7.094;2024-01-15T12:07:37;8.60;62.00
11989;DHT22;6054;50.966;7.094;2024-01-15T12:10:08;8.60;61.30
11989;DHT22;6054;50.966;7.094;2024-01-15T12:12:43;8.60;62.20
11989;DHT22;6054;50.966;7.094;2024-01-15T12:15:14;8.70;62.60
11989;DHT22;6054;50.966;7.094;2024-01-15T12:17:42;8.70;61.90
11989;DHT22;6054;50.966;7.094;2024-01-15T12:20:10;9.00;62.40
11989;DHT22;6054;50.966;7.094;2024-01-15T12:22:38;8.70;62.90
11989;DHT22;6054;50.966;7.094;2024-01-15T12:25:05;8.80;62.30
11989;DHT22;6054;50.966;7.094;2024-01-15T12:27:32;8.80;63.00
11989;DHT22;6054;50.966;7.094;2024-01-15T12:29:59;8.80;63.00
11989;DHT22;6054;50.966;7.094;2024-01-15T12:32:26;8.80;62.30
11989;DHT22;6054;50.966;7.094;2024-01-15T12:34:54;8.90;63.00
11989;DHT22;6054;50.966;7.094;2024-01-15T12:37:20;9.20;63.10
11989;DHT22;6054;50.966;7.094;2024-01-15T12:39:48;9.00;63.50
11989;DHT22;6054;50.966;7.094;2024-01-15T12:42:14;9.10;63.20
11989;DHT22;6054;50.966;7.094;2024-01-15T12:44:42;9.10;63.30
11989;DHT22;6054;50.966;7.094;2024-01-15T12:47:09;9.10;63.20
11989;DHT22;6054;50.966;7.094;2024-01-15T12:49:36;9.10;62.00
11989;DHT22;6054;50.966;7.094;2024-01-15T12:52:09;9.10;62.40
11989;DHT22;6054;50.966;7.094;2024-01-15T12:54:35;9.40;62.30
11989;DHT22;6054;50.966;7.094;2024-01-15T12:57:02;9.10;61.80
11989;DHT22;6054;50.966;7.094;2024-01-15T12:59:29;9.10;62.40
11989;DHT22;6054;50.966;7.094;2024-01-15T13:01:56;9.10;62.00
11989;DHT22;6054;50.966;7.094;2024-01-15T13:04:23;9.10;62.30
11989;DHT22;6054;50.966;7.094;2024-01-15T13:06:50;9.10;62.80
11989;DHT22;6054;50.966;7.094;2024-01-15T13:09:19;9.10;62.00
11989;DHT22;6054;50.966;7.094;2024-01-15T13:11:46;9.10;61.80
11989;DHT22;6054;50.966;7.094;2024-01-15T13:14:13;9.40;62.50
11989;DHT22;6054;50.966;7.094;2024-01-15T13:16:40;9.10;62.40
11989;DHT22;6054;50.966;7.094;2024-01-15T13:19:07;9.10;61.80
11989;DHT22;6054;50.966;7.094;2024-01-15T13:21:34;9.10;62.50
11989;DHT22;6054;50.966;7.094;2024-01-15T13:24:01;9.10;61.50
11989;DHT22;6054;50.966;7.094;2024-01-15T13:26:32;9.10;62.00
11989;DHT22;6054;50.966;7.094;2024-01-15T13:28:59;9.10;61.90
11989;DHT22;6054;50.966;7.094;2024-01-15T13:31:26;9.10;62.00
11989;DHT22;6054;50.966;7.094;2024-01-15T13:33:53;9.40;62.10
11989;DHT22;6054;50.966;7.094;2024-01-15T13:36:21;9.10;62.30
11989;DHT22;6054;50.966;7.094;2024-01-15T13:38:48;9.50;62.30
11989;DHT22;6054;50.966;7.094;2024-01-15T13:41:15;9.20;61.80
11989;DHT22;6054;50.966;7.094;2024-01-15T13:43:45;9.20;62.10
11989;DHT22;6054;50.966;7.094;2024-01-15T13:46:12;9.20;61.70
11989;DHT22;6054;50.966;7.094;2024-01-15T13:48:39;9.50;61.70
11989;DHT22;6054;50.966;7.094;2024-01-15T13:51:05;9.20;61.70
11989;DHT22;6054;50.966;7.094;2024-01-15T13:53:32;9.40;61.60
11989;DHT22;6054;50.966;7.094;2024-01-15T13:55:59;9.50;61.10
11989;DHT22;6054;50.966;7.094;2024-01-15T13:58:26;9.20;61.40
11989;DHT22;6054;50.966;7.094;2024-01-15T14:00:54;9.20;61.40
11989;DHT22;6054;50.966;7.094;2024-01-15T14:03:21;9.10;61.30
11989;DHT22;6054;50.966;7.094;2024-01-15T14:05:47;9.10;60.90
11989;DHT22;6054;50.966;7.094;2024-01-15T14:08:14;9.10;61.10
11989;DHT22;6054;50.966;7.094;2024-01-15T14:10:41;9.20;61.30
11989;DHT22;6054;50.966;7.094;2024-01-15T14:13:08;9.10;60.80
11989;DHT22;6054;50.966;7.094;2024-01-15T14:15:35;9.10;60.40
11989;DHT22;6054;50.966;7.094;2024-01-15T14:18:04;9.40;60.70
11989;DHT22;6054;50.966;7.094;2024-01-15T14:20:31;9.10;61.20
11989;DHT22;6054;50.966;7.094;2024-01-15T14:22:58;9.30;60.60
11989;DHT22;6054;50.966;7.094;2024-01-15T14:25:25;9.00;59.50
11989;DHT22;6054;50.966;7.094;2024-01-15T14:27:51;9.20;60.50
11989;DHT22;6054;50.966;7.094;2024-01-15T14:33:55;9.00;61.50
11989;DHT22;6054;50.966;7.094;2024-01-15T14:36:23;8.90;60.40
11989;DHT22;6054;50.966;7.094;2024-01-15T14:38:50;8.90;61.20
11989;DHT22;6054;50.966;7.094;2024-01-15T14:41:17;8.90;60.50
11989;DHT22;6054;50.966;7.094;2024-01-15T14:43:43;8.90;60.50
11989;DHT22;6054;50.966;7.094;2024-01-15T14:46:11;8.80;60.70
11989;DHT22;6054;50.966;7.094;2024-01-15T14:48:38;8.80;61.00
11989;DHT22;6054;50.966;7.094;2024-01-15T14:51:07;8.90;60.90
11989;DHT22;6054;50.966;7.094;2024-01-15T14:53:33;8.90;60.50
11989;DHT22;6054;50.966;7.094;2024-01-15T14:56:01;8.90;60.20
11989;DHT22;6054;50.966;7.094;2024-01-15T14:58:28;8.90;60.70
11989;DHT22;6054;50.966;7.094;2024-01-15T15:00:55;8.90;61.10
11989;DHT22;6054;50.966;7.094;2024-01-15T15:03:22;8.80;61.00
11989;DHT22;6054;50.966;7.094;2024-01-15T15:05:48;8.90;60.60
11989;DHT22;6054;50.966;7.094;2024-01-15T15:08:16;8.90;60.00
11989;DHT22;6054;50.966;7.094;2024-01-15T15:10:43;8.90;60.50
11989;DHT22;6054;50.966;7.094;2024-01-15T15:13:10;8.90;59.60
11989;DHT22;6054;50.966;7.094;2024-01-15T15:15:37;8.90;60.30
11989;DHT22;6054;50.966;7.094;2024-01-15T15:18:04;8.80;59.80
11989;DHT22;6054;50.966;7.094;2024-01-15T15:20:31;8.80;60.60
11989;DHT22;6054;50.966;7.094;2024-01-15T15:22:57;9.20;60.40
11989;DHT22;6054;50.966;7.094;2024-01-15T15:25:26;8.80;60.00
11989;DHT22;6054;50.966;7.094;2024-01-15T15:27:52;8.80;60.50
11989;DHT22;6054;50.966;7.094;2024-01-15T15:30:19;8.80;59.10
11989;DHT22;6054;50.966;7.094;2024-01-15T15:32:46;8.80;59.00
11989;DHT22;6054;50.966;7.094;2024-01-15T15:35:13;8.80;60.20
11989;DHT22;6054;50.966;7.094;2024-01-15T15:37:39;8.80;60.10
11989;DHT22;6054;50.966;7.094;2024-01-15T15:40:07;8.80;60.60
11989;DHT22;6054;50.966;7.094;2024-01-15T15:42:37;8.80;61.00
11989;DHT22;6054;50.966;7.094;2024-01-15T15:45:04;9.20;60.80
11989;DHT22;6054;50.966;7.094;2024-01-15T15:47:31;8.80;60.90
11989;DHT22;6054;50.966;7.094;2024-01-15T15:49:58;8.80;60.00
11989;DHT22;6054;50.966;7.094;2024-01-15T15:52:25;8.80;59.40
11989;DHT22;6054;50.966;7.094;2024-01-15T15:54:52;8.90;59.50
11989;DHT22;6054;50.966;7.094;2024-01-15T15:57:19;8.60;59.00
11989;DHT22;6054;50.966;7.094;2024-01-15T15:59:48;8.60;59.10
11989;DHT22;6054;50.966;7.094;2024-01-15T16:02:14;8.50;59.20
11989;DHT22;6054;50.966;7.094;2024-01-15T16:04:41;8.50;59.60
11989;DHT22;6054;50.966;7.094;2024-01-15T16:07:08;8.50;60.00